Skiathos Island, Greece

3:47 PM EET on February 09, 2016 (GMT +0200)
Skopelos Greece | | Change Station
CLOSE
Current Station
Personal Weather Station
Location: Ελλάδα,
Elevation: 259 ft
Nearby Weather Stations

Elev 259 ft 39.13 °N, 23.72 °E | Updated 12 seconds ago

Partly Cloudy
Partly Cloudy
54.3 °F
Feels Like 54.3 °F
N
0.4
Wind Variable Wind from NNW
Gusts 3.8 mph

Today
High -- | Low -- °F
--% Chance of Precip.
Yesterday
High -- | Low -- °F
Precip. -- in
Pressure 30.15 in
Visibility 6.2 miles
Clouds Few 3500 ft
Dew Point 41 °F
Humidity 61%
Rainfall 0.00 in
Snow Depth Not available.
7:25 AM 5:55 PM
New Moon, 1% visible
METAR LGBL 091320Z 08006KT 9999 FEW035 13/06 Q1021
Pressure 30.15 in
Visibility 6.2 miles
Clouds Few 3500 ft
Dew Point 41 °F
Humidity 61%
Rainfall 0.00 in
Snow Depth Not available.
7:25 AM 5:55 PM
New Moon, 1% visible
METAR LGBL 091320Z 08006KT 9999 FEW035 13/06 Q1021

10-Day Weather Forecast

Almanac

Astronomy

Feb. 09, 2016 Rise Set
Actual Time
Civil Twilight
Nautical Twilight
Astronomical Twilight
Moon
Length of Visible Light
Length of Day
Tomorrow will be .
, % of the Moon is Illuminated

Today's Extremes

Country Highs Country Lows

Community

WunderPhotos

Upload Photos

1,891,591 photos uploaded!

WunderBlog® & News

Nearby

Air Quality

  Air Quality AQ Index Pollutant
Not available.

Snow Depth

Station Depth Elevation

Earthquake Activity

City Distance Mag. Time & Date
Minimum magnitude displayed is 2.5.

Coastal Water Temperatures

Place Temperature

Stations

Nearby Weather Stations

Station Location Temp. Windchill Dew Point Humidity Wind Precip. Elev Updated Type